sensor_id;sensor_type;location;lat;lon;timestamp;pressure;altitude;pressure_sealevel;temperature;humidity
36242;BME280;22283;42.748;12.732;2023-09-12T00:04:25;98052.50;;;18.30;73.14
36242;BME280;22283;42.748;12.732;2023-09-12T00:09:25;98047.78;;;18.24;73.60
36242;BME280;22283;42.748;12.732;2023-09-12T00:14:26;98045.97;;;18.32;72.92
36242;BME280;22283;42.748;12.732;2023-09-12T00:19:27;98042.75;;;18.29;73.15
36242;BME280;22283;42.748;12.732;2023-09-12T00:24:28;98043.72;;;18.11;74.01
36242;BME280;22283;42.748;12.732;2023-09-12T00:29:29;98033.66;;;18.05;74.61
36242;BME280;22283;42.748;12.732;2023-09-12T00:34:30;98032.22;;;17.85;75.65
36242;BME280;22283;42.748;12.732;2023-09-12T00:39:30;98032.78;;;17.62;76.81
36242;BME280;22283;42.748;12.732;2023-09-12T00:44:31;98038.69;;;17.48;77.64
36242;BME280;22283;42.748;12.732;2023-09-12T00:49:32;98031.72;;;17.29;78.75
36242;BME280;22283;42.748;12.732;2023-09-12T00:54:33;98043.88;;;17.24;78.77
36242;BME280;22283;42.748;12.732;2023-09-12T00:59:34;98050.25;;;17.23;78.91
36242;BME280;22283;42.748;12.732;2023-09-12T01:04:36;98034.81;;;17.16;79.89
36242;BME280;22283;42.748;12.732;2023-09-12T01:09:37;98030.78;;;17.12;80.84
36242;BME280;22283;42.748;12.732;2023-09-12T01:14:38;98020.44;;;17.17;80.41
36242;BME280;22283;42.748;12.732;2023-09-12T01:19:38;98019.56;;;17.35;79.20
36242;BME280;22283;42.748;12.732;2023-09-12T01:30:10;98023.47;;;17.49;78.31
36242;BME280;22283;42.748;12.732;2023-09-12T01:35:11;98027.72;;;17.59;77.47
36242;BME280;22283;42.748;12.732;2023-09-12T01:40:12;98031.72;;;17.29;78.98
36242;BME280;22283;42.748;12.732;2023-09-12T01:45:16;98037.25;;;17.10;79.78
36242;BME280;22283;42.748;12.732;2023-09-12T01:50:19;98031.13;;;16.91;80.25
36242;BME280;22283;42.748;12.732;2023-09-12T01:55:21;98029.34;;;16.82;81.74
36242;BME280;22283;42.748;12.732;2023-09-12T02:00:23;98015.84;;;16.84;82.11
36242;BME280;22283;42.748;12.732;2023-09-12T02:05:23;98024.59;;;16.94;82.01
36242;BME280;22283;42.748;12.732;2023-09-12T02:10:24;98020.66;;;16.80;82.66
36242;BME280;22283;42.748;12.732;2023-09-12T02:15:25;98033.16;;;16.62;84.04
36242;BME280;22283;42.748;12.732;2023-09-12T02:20:26;98023.84;;;16.48;84.92
36242;BME280;22283;42.748;12.732;2023-09-12T02:25:27;98032.69;;;16.48;84.73
36242;BME280;22283;42.748;12.732;2023-09-12T02:30:27;98025.50;;;16.31;85.99
36242;BME280;22283;42.748;12.732;2023-09-12T02:35:28;98026.09;;;16.25;86.44
36242;BME280;22283;42.748;12.732;2023-09-12T02:40:30;98025.19;;;16.16;87.42
36242;BME280;22283;42.748;12.732;2023-09-12T02:45:31;98024.19;;;16.17;87.57
36242;BME280;22283;42.748;12.732;2023-09-12T02:50:32;98030.09;;;16.11;87.43
36242;BME280;22283;42.748;12.732;2023-09-12T02:55:32;98033.69;;;16.02;87.91
36242;BME280;22283;42.748;12.732;2023-09-12T03:00:38;98045.94;;;15.95;88.68
36242;BME280;22283;42.748;12.732;2023-09-12T03:05:39;98030.28;;;15.82;89.54
36242;BME280;22283;42.748;12.732;2023-09-12T03:10:41;98034.19;;;15.88;89.97
36242;BME280;22283;42.748;12.732;2023-09-12T03:15:42;98038.13;;;15.84;89.69
36242;BME280;22283;42.748;12.732;2023-09-12T03:20:42;98041.00;;;15.72;90.93
36242;BME280;22283;42.748;12.732;2023-09-12T03:25:43;98028.78;;;15.70;91.11
36242;BME280;22283;42.748;12.732;2023-09-12T03:30:44;98036.16;;;15.86;89.93
36242;BME280;22283;42.748;12.732;2023-09-12T03:35:44;98038.88;;;15.76;89.87
36242;BME280;22283;42.748;12.732;2023-09-12T03:40:45;98043.41;;;15.66;90.50
36242;BME280;22283;42.748;12.732;2023-09-12T03:45:46;98035.69;;;15.53;90.66
36242;BME280;22283;42.748;12.732;2023-09-12T03:50:47;98040.69;;;15.76;91.28
36242;BME280;22283;42.748;12.732;2023-09-12T03:55:47;98029.88;;;16.86;85.22
36242;BME280;22283;42.748;12.732;2023-09-12T04:00:49;98041.81;;;17.69;77.47
36242;BME280;22283;42.748;12.732;2023-09-12T04:05:50;98039.56;;;17.05;80.40
36242;BME280;22283;42.748;12.732;2023-09-12T04:10:51;98037.13;;;16.40;83.61
36242;BME280;22283;42.748;12.732;2023-09-12T04:15:52;98046.03;;;16.03;87.06
36242;BME280;22283;42.748;12.732;2023-09-12T04:20:52;98046.91;;;15.57;89.36
36242;BME280;22283;42.748;12.732;2023-09-12T04:25:56;98056.25;;;15.23;92.12
36242;BME280;22283;42.748;12.732;2023-09-12T04:31:03;98065.38;;;15.11;93.98
36242;BME280;22283;42.748;12.732;2023-09-12T04:36:05;98055.47;;;14.94;94.88
36242;BME280;22283;42.748;12.732;2023-09-12T04:41:05;98066.81;;;14.86;95.97
36242;BME280;22283;42.748;12.732;2023-09-12T04:46:07;98061.63;;;14.94;96.71
36242;BME280;22283;42.748;12.732;2023-09-12T04:51:08;98075.91;;;15.03;96.24
36242;BME280;22283;42.748;12.732;2023-09-12T04:56:08;98074.34;;;15.20;95.66
36242;BME280;22283;42.748;12.732;2023-09-12T05:01:10;98079.56;;;15.21;95.02
36242;BME280;22283;42.748;12.732;2023-09-12T05:06:13;98086.84;;;15.19;95.02
36242;BME280;22283;42.748;12.732;2023-09-12T05:11:15;98073.94;;;15.24;94.86
36242;BME280;22283;42.748;12.732;2023-09-12T05:16:16;98074.31;;;15.39;94.12
36242;BME280;22283;42.748;12.732;2023-09-12T05:21:17;98080.31;;;15.61;92.38
36242;BME280;22283;42.748;12.732;2023-09-12T05:26:18;98084.13;;;15.95;90.47
36242;BME280;22283;42.748;12.732;2023-09-12T05:31:19;98090.81;;;16.55;87.23
36242;BME280;22283;42.748;12.732;2023-09-12T05:36:20;98084.53;;;17.09;84.44
36242;BME280;22283;42.748;12.732;2023-09-12T05:41:20;98090.63;;;17.63;84.31
36242;BME280;22283;42.748;12.732;2023-09-12T05:46:21;98095.91;;;18.07;80.66
36242;BME280;22283;42.748;12.732;2023-09-12T05:51:22;98093.94;;;18.68;76.06
36242;BME280;22283;42.748;12.732;2023-09-12T05:56:23;98091.03;;;19.28;71.71
36242;BME280;22283;42.748;12.732;2023-09-12T06:01:23;98086.78;;;19.58;69.09
36242;BME280;22283;42.748;12.732;2023-09-12T06:06:24;98093.50;;;19.54;69.75
36242;BME280;22283;42.748;12.732;2023-09-12T06:11:25;98103.25;;;19.39;72.96
36242;BME280;22283;42.748;12.732;2023-09-12T06:16:26;98109.41;;;19.88;71.67
36242;BME280;22283;42.748;12.732;2023-09-12T06:21:27;98109.81;;;20.25;69.17
36242;BME280;22283;42.748;12.732;2023-09-12T06:26:28;98114.72;;;20.60;67.01
36242;BME280;22283;42.748;12.732;2023-09-12T06:31:29;98105.78;;;20.91;63.37
36242;BME280;22283;42.748;12.732;2023-09-12T06:36:29;98103.81;;;21.08;61.88
36242;BME280;22283;42.748;12.732;2023-09-12T06:41:30;98103.78;;;21.39;60.64
36242;BME280;22283;42.748;12.732;2023-09-12T06:46:31;98110.25;;;21.82;59.23
36242;BME280;22283;42.748;12.732;2023-09-12T06:51:32;98107.38;;;21.84;59.12
36242;BME280;22283;42.748;12.732;2023-09-12T06:56:32;98108.50;;;21.75;60.09
36242;BME280;22283;42.748;12.732;2023-09-12T07:01:38;98112.38;;;21.72;60.29
36242;BME280;22283;42.748;12.732;2023-09-12T07:06:38;98115.72;;;21.89;59.49
36242;BME280;22283;42.748;12.732;2023-09-12T07:11:39;98130.06;;;22.04;59.35
36242;BME280;22283;42.748;12.732;2023-09-12T07:16:39;98146.97;;;21.98;58.49
36242;BME280;22283;42.748;12.732;2023-09-12T07:21:40;98145.91;;;22.22;58.93
36242;BME280;22283;42.748;12.732;2023-09-12T07:26:41;98148.50;;;22.45;57.19
36242;BME280;22283;42.748;12.732;2023-09-12T07:31:42;98162.13;;;22.73;55.50
36242;BME280;22283;42.748;12.732;2023-09-12T07:36:42;98172.97;;;22.80;55.13
36242;BME280;22283;42.748;12.732;2023-09-12T07:41:43;98178.47;;;22.87;56.57
36242;BME280;22283;42.748;12.732;2023-09-12T07:46:43;98169.69;;;23.14;55.93
36242;BME280;22283;42.748;12.732;2023-09-12T07:51:44;98180.00;;;23.11;56.13
36242;BME280;22283;42.748;12.732;2023-09-12T07:56:45;98179.41;;;23.30;55.54
36242;BME280;22283;42.748;12.732;2023-09-12T08:01:45;98187.63;;;23.22;55.01
36242;BME280;22283;42.748;12.732;2023-09-12T08:06:46;98196.47;;;23.16;54.48
36242;BME280;22283;42.748;12.732;2023-09-12T08:11:47;98199.44;;;23.21;54.42
36242;BME280;22283;42.748;12.732;2023-09-12T08:16:47;98187.63;;;23.22;53.07
36242;BME280;22283;42.748;12.732;2023-09-12T08:21:48;98199.44;;;23.42;52.94
36242;BME280;22283;42.748;12.732;2023-09-12T08:26:48;98185.25;;;23.55;52.82
36242;BME280;22283;42.748;12.732;2023-09-12T08:31:49;98177.47;;;23.88;52.74
36242;BME280;22283;42.748;12.732;2023-09-12T08:36:50;98163.97;;;24.23;53.16
36242;BME280;22283;42.748;12.732;2023-09-12T08:41:51;98171.00;;;24.45;51.78
36242;BME280;22283;42.748;12.732;2023-09-12T08:46:52;98160.50;;;24.70;50.86
36242;BME280;22283;42.748;12.732;2023-09-12T08:51:53;98168.06;;;24.82;49.26
36242;BME280;22283;42.748;12.732;2023-09-12T08:56:53;98168.72;;;24.90;50.06
36242;BME280;22283;42.748;12.732;2023-09-12T09:01:54;98159.03;;;25.16;48.33
36242;BME280;22283;42.748;12.732;2023-09-12T09:06:57;98154.94;;;25.40;47.61
36242;BME280;22283;42.748;12.732;2023-09-12T09:11:58;98165.16;;;25.71;47.84
36242;BME280;22283;42.748;12.732;2023-09-12T09:16:58;98163.91;;;25.93;46.16
36242;BME280;22283;42.748;12.732;2023-09-12T09:22:04;98164.94;;;26.19;46.10
36242;BME280;22283;42.748;12.732;2023-09-12T09:27:05;98161.97;;;26.40;44.79
36242;BME280;22283;42.748;12.732;2023-09-12T09:32:05;98172.13;;;26.71;44.26
36242;BME280;22283;42.748;12.732;2023-09-12T09:37:16;98169.31;;;26.98;44.19
36242;BME280;22283;42.748;12.732;2023-09-12T09:42:19;98170.56;;;27.02;44.49
36242;BME280;22283;42.748;12.732;2023-09-12T09:47:20;98177.13;;;27.26;44.04
36242;BME280;22283;42.748;12.732;2023-09-12T09:52:27;98175.38;;;27.38;42.93
36242;BME280;22283;42.748;12.732;2023-09-12T09:57:28;98167.88;;;27.40;43.02
36242;BME280;22283;42.748;12.732;2023-09-12T10:02:28;98164.16;;;27.60;42.62
36242;BME280;22283;42.748;12.732;2023-09-12T10:07:29;98155.03;;;27.79;42.23
36242;BME280;22283;42.748;12.732;2023-09-12T10:12:36;98146.22;;;28.09;42.01
36242;BME280;22283;42.748;12.732;2023-09-12T10:17:37;98140.72;;;28.34;41.17
36242;BME280;22283;42.748;12.732;2023-09-12T10:22:40;98134.94;;;28.67;40.20
36242;BME280;22283;42.748;12.732;2023-09-12T10:27:42;98138.69;;;29.03;39.81
36242;BME280;22283;42.748;12.732;2023-09-12T10:32:43;98124.56;;;29.24;37.71
36242;BME280;22283;42.748;12.732;2023-09-12T10:37:45;98130.28;;;29.34;36.38
36242;BME280;22283;42.748;12.732;2023-09-12T10:42:47;98124.72;;;29.41;32.43
36242;BME280;22283;42.748;12.732;2023-09-12T10:47:48;98113.63;;;29.54;30.98
36242;BME280;22283;42.748;12.732;2023-09-12T10:52:48;98115.78;;;29.64;29.82
36242;BME280;22283;42.748;12.732;2023-09-12T10:58:02;98111.53;;;30.03;30.31
36242;BME280;22283;42.748;12.732;2023-09-12T11:08:36;98097.56;;;30.23;27.98
36242;BME280;22283;42.748;12.732;2023-09-12T11:13:38;98100.53;;;30.33;27.26
36242;BME280;22283;42.748;12.732;2023-09-12T11:24:01;98104.19;;;30.16;27.09
36242;BME280;22283;42.748;12.732;2023-09-12T11:29:11;98101.81;;;30.31;26.51
36242;BME280;22283;42.748;12.732;2023-09-12T11:34:13;98111.06;;;30.42;25.24
36242;BME280;22283;42.748;12.732;2023-09-12T11:39:23;98095.88;;;30.46;26.07
36242;BME280;22283;42.748;12.732;2023-09-12T11:44:25;98101.53;;;30.44;25.70
36242;BME280;22283;42.748;12.732;2023-09-12T11:49:26;98098.22;;;30.54;25.76
36242;BME280;22283;42.748;12.732;2023-09-12T11:54:27;98089.81;;;30.44;25.53
36242;BME280;22283;42.748;12.732;2023-09-12T11:59:29;98087.03;;;30.55;26.67
36242;BME280;22283;42.748;12.732;2023-09-12T12:04:30;98080.41;;;30.51;24.76
36242;BME280;22283;42.748;12.732;2023-09-12T12:09:30;98081.72;;;30.49;27.14
36242;BME280;22283;42.748;12.732;2023-09-12T12:14:33;98061.56;;;30.50;25.97
36242;BME280;22283;42.748;12.732;2023-09-12T12:19:34;98059.69;;;30.38;23.94
36242;BME280;22283;42.748;12.732;2023-09-12T12:24:38;98062.41;;;30.38;23.41
36242;BME280;22283;42.748;12.732;2023-09-12T12:29:38;98063.50;;;30.14;24.07
36242;BME280;22283;42.748;12.732;2023-09-12T12:34:47;98060.91;;;30.19;23.58
36242;BME280;22283;42.748;12.732;2023-09-12T12:39:48;98051.63;;;30.20;24.64
36242;BME280;22283;42.748;12.732;2023-09-12T12:44:52;98053.53;;;30.31;25.81
36242;BME280;22283;42.748;12.732;2023-09-12T12:49:52;98053.75;;;30.42;25.79
36242;BME280;22283;42.748;12.732;2023-09-12T12:54:53;98055.09;;;30.56;25.79
36242;BME280;22283;42.748;12.732;2023-09-12T13:00:05;98043.41;;;30.44;25.07
36242;BME280;22283;42.748;12.732;2023-09-12T13:05:06;98042.81;;;30.42;24.95
36242;BME280;22283;42.748;12.732;2023-09-12T13:10:08;98034.44;;;30.20;26.74
36242;BME280;22283;42.748;12.732;2023-09-12T13:15:09;98031.13;;;30.29;27.28
36242;BME280;22283;42.748;12.732;2023-09-12T13:20:09;98024.19;;;30.38;25.28
36242;BME280;22283;42.748;12.732;2023-09-12T13:25:10;98034.50;;;30.36;26.80
36242;BME280;22283;42.748;12.732;2023-09-12T13:30:11;98030.03;;;30.30;26.05
36242;BME280;22283;42.748;12.732;2023-09-12T13:35:11;98024.47;;;30.13;25.07
36242;BME280;22283;42.748;12.732;2023-09-12T13:40:12;98021.50;;;30.15;26.22
36242;BME280;22283;42.748;12.732;2023-09-12T13:45:12;98019.84;;;30.14;28.42
36242;BME280;22283;42.748;12.732;2023-09-12T13:50:13;98017.34;;;30.12;29.08
36242;BME280;22283;42.748;12.732;2023-09-12T13:55:14;98020.31;;;30.11;28.13
36242;BME280;22283;42.748;12.732;2023-09-12T14:00:16;98013.69;;;30.07;28.69
36242;BME280;22283;42.748;12.732;2023-09-12T14:05:17;98013.22;;;30.10;28.54
36242;BME280;22283;42.748;12.732;2023-09-12T14:10:18;98014.38;;;30.14;28.10
36242;BME280;22283;42.748;12.732;2023-09-12T14:15:18;98013.91;;;30.17;28.03
36242;BME280;22283;42.748;12.732;2023-09-12T14:20:19;98006.06;;;30.09;29.23
36242;BME280;22283;42.748;12.732;2023-09-12T14:25:20;98007.63;;;30.05;27.82
36242;BME280;22283;42.748;12.732;2023-09-12T14:30:20;98006.56;;;30.06;25.92
36242;BME280;22283;42.748;12.732;2023-09-12T14:35:22;98003.50;;;30.02;26.85
36242;BME280;22283;42.748;12.732;2023-09-12T14:40:23;98008.94;;;30.02;28.04
36242;BME280;22283;42.748;12.732;2023-09-12T14:45:24;98006.56;;;30.06;29.54
36242;BME280;22283;42.748;12.732;2023-09-12T14:50:25;98004.41;;;30.08;30.12
36242;BME280;22283;42.748;12.732;2023-09-12T14:55:29;98003.72;;;30.01;30.84
36242;BME280;22283;42.748;12.732;2023-09-12T15:00:29;98000.41;;;29.99;32.16
36242;BME280;22283;42.748;12.732;2023-09-12T15:05:30;97992.59;;;29.91;30.62
36242;BME280;22283;42.748;12.732;2023-09-12T15:10:30;98004.47;;;29.84;31.32
36242;BME280;22283;42.748;12.732;2023-09-12T15:15:31;97989.66;;;29.80;32.63
36242;BME280;22283;42.748;12.732;2023-09-12T15:20:32;97995.00;;;29.75;32.66
36242;BME280;22283;42.748;12.732;2023-09-12T15:25:32;97998.56;;;29.64;33.04
36242;BME280;22283;42.748;12.732;2023-09-12T15:30:33;97987.38;;;29.54;31.89
36242;BME280;22283;42.748;12.732;2023-09-12T15:35:33;97989.28;;;29.41;32.52
36242;BME280;22283;42.748;12.732;2023-09-12T15:40:34;97989.97;;;29.25;33.13
36242;BME280;22283;42.748;12.732;2023-09-12T15:45:34;97989.25;;;29.18;32.85
36242;BME280;22283;42.748;12.732;2023-09-12T15:50:35;97989.56;;;28.98;33.46
36242;BME280;22283;42.748;12.732;2023-09-12T15:55:36;97985.59;;;28.82;33.33
36242;BME280;22283;42.748;12.732;2023-09-12T16:00:37;97990.66;;;28.67;33.77
36242;BME280;22283;42.748;12.732;2023-09-12T16:05:37;97990.84;;;28.54;33.76
36242;BME280;22283;42.748;12.732;2023-09-12T16:10:37;97987.47;;;28.40;33.99
36242;BME280;22283;42.748;12.732;2023-09-12T16:15:38;97982.41;;;28.25;34.23
36242;BME280;22283;42.748;12.732;2023-09-12T16:20:38;97984.81;;;28.15;34.11
36242;BME280;22283;42.748;12.732;2023-09-12T16:25:39;97982.91;;;28.04;34.40
36242;BME280;22283;42.748;12.732;2023-09-12T16:30:39;97975.31;;;27.87;34.73
36242;BME280;22283;42.748;12.732;2023-09-12T16:35:40;97981.94;;;27.73;34.96
36242;BME280;22283;42.748;12.732;2023-09-12T16:40:40;97980.84;;;27.56;35.25
36242;BME280;22283;42.748;12.732;2023-09-12T16:45:41;97981.69;;;27.38;35.84
36242;BME280;22283;42.748;12.732;2023-09-12T16:50:44;97988.13;;;27.18;36.55
36242;BME280;22283;42.748;12.732;2023-09-12T16:55:44;97992.22;;;26.96;37.03
36242;BME280;22283;42.748;12.732;2023-09-12T17:00:45;97990.75;;;26.68;37.58
36242;BME280;22283;42.748;12.732;2023-09-12T17:05:45;97994.63;;;26.47;37.89
36242;BME280;22283;42.748;12.732;2023-09-12T17:10:46;97993.69;;;26.22;38.52
36242;BME280;22283;42.748;12.732;2023-09-12T17:15:46;97999.84;;;25.97;39.75
36242;BME280;22283;42.748;12.732;2023-09-12T17:20:47;97997.78;;;25.73;40.04
36242;BME280;22283;42.748;12.732;2023-09-12T17:25:47;98000.75;;;25.58;40.52
36242;BME280;22283;42.748;12.732;2023-09-12T17:30:48;98012.22;;;25.40;40.95
36242;BME280;22283;42.748;12.732;2023-09-12T17:35:50;98007.84;;;25.19;41.11
36242;BME280;22283;42.748;12.732;2023-09-12T17:40:51;98013.66;;;25.03;41.93
36242;BME280;22283;42.748;12.732;2023-09-12T17:45:52;98019.25;;;24.88;42.27
36242;BME280;22283;42.748;12.732;2023-09-12T17:50:53;98017.78;;;24.79;41.79
36242;BME280;22283;42.748;12.732;2023-09-12T17:55:54;98024.84;;;24.67;42.07
36242;BME280;22283;42.748;12.732;2023-09-12T18:00:55;98034.38;;;24.56;41.92
36242;BME280;22283;42.748;12.732;2023-09-12T18:05:56;98039.75;;;24.49;42.12
36242;BME280;22283;42.748;12.732;2023-09-12T18:10:57;98041.81;;;24.41;42.30
36242;BME280;22283;42.748;12.732;2023-09-12T18:15:57;98044.84;;;24.31;42.59
36242;BME280;22283;42.748;12.732;2023-09-12T18:20:58;98055.66;;;24.31;42.88
36242;BME280;22283;42.748;12.732;2023-09-12T18:25:59;98065.00;;;24.22;44.18
36242;BME280;22283;42.748;12.732;2023-09-12T18:30:59;98066.63;;;24.16;44.56
36242;BME280;22283;42.748;12.732;2023-09-12T18:36:00;98077.00;;;24.13;45.80
36242;BME280;22283;42.748;12.732;2023-09-12T18:41:00;98078.00;;;24.05;46.59
36242;BME280;22283;42.748;12.732;2023-09-12T18:46:01;98074.38;;;23.91;46.94
36242;BME280;22283;42.748;12.732;2023-09-12T18:51:01;98081.53;;;23.71;47.67
36242;BME280;22283;42.748;12.732;2023-09-12T18:56:02;98084.09;;;23.58;48.67
36242;BME280;22283;42.748;12.732;2023-09-12T19:01:03;98083.25;;;23.29;49.15
36242;BME280;22283;42.748;12.732;2023-09-12T19:06:03;98103.53;;;23.03;50.29
36242;BME280;22283;42.748;12.732;2023-09-12T19:11:04;98108.31;;;22.87;51.14
36242;BME280;22283;42.748;12.732;2023-09-12T19:16:04;98113.50;;;22.67;51.67
36242;BME280;22283;42.748;12.732;2023-09-12T19:21:05;98124.13;;;22.53;52.62
36242;BME280;22283;42.748;12.732;2023-09-12T19:26:06;98119.84;;;22.44;53.22
36242;BME280;22283;42.748;12.732;2023-09-12T19:31:06;98121.66;;;22.22;54.31
36242;BME280;22283;42.748;12.732;2023-09-12T19:36:07;98137.50;;;22.17;55.30
36242;BME280;22283;42.748;12.732;2023-09-12T19:41:14;98134.44;;;22.05;56.02
36242;BME280;22283;42.748;12.732;2023-09-12T19:46:14;98130.50;;;21.93;56.82
36242;BME280;22283;42.748;12.732;2023-09-12T19:51:15;98130.31;;;21.80;57.69
36242;BME280;22283;42.748;12.732;2023-09-12T19:56:15;98143.84;;;21.72;58.62
36242;BME280;22283;42.748;12.732;2023-09-12T20:01:16;98143.25;;;21.61;58.94
36242;BME280;22283;42.748;12.732;2023-09-12T20:06:16;98150.28;;;21.71;59.12
36242;BME280;22283;42.748;12.732;2023-09-12T20:11:17;98151.81;;;21.65;59.33
36242;BME280;22283;42.748;12.732;2023-09-12T20:16:18;98145.38;;;21.51;60.72
36242;BME280;22283;42.748;12.732;2023-09-12T20:21:21;98146.47;;;21.42;61.79
36242;BME280;22283;42.748;12.732;2023-09-12T20:26:21;98152.03;;;21.41;61.70
36242;BME280;22283;42.748;12.732;2023-09-12T20:31:21;98161.50;;;21.28;62.49
36242;BME280;22283;42.748;12.732;2023-09-12T20:36:22;98150.94;;;21.27;62.30
36242;BME280;22283;42.748;12.732;2023-09-12T20:41:25;98166.69;;;21.30;61.97
36242;BME280;22283;42.748;12.732;2023-09-12T20:46:25;98168.00;;;21.42;61.23
36242;BME280;22283;42.748;12.732;2023-09-12T20:51:25;98173.34;;;21.50;60.85
36242;BME280;22283;42.748;12.732;2023-09-12T20:56:26;98165.34;;;21.57;60.56
36242;BME280;22283;42.748;12.732;2023-09-12T21:01:26;98177.91;;;21.65;60.61
36242;BME280;22283;42.748;12.732;2023-09-12T21:06:27;98171.88;;;21.63;60.77
36242;BME280;22283;42.748;12.732;2023-09-12T21:11:28;98178.25;;;21.61;60.85
36242;BME280;22283;42.748;12.732;2023-09-12T21:16:28;98179.34;;;21.52;61.27
36242;BME280;22283;42.748;12.732;2023-09-12T21:21:29;98170.72;;;21.42;61.92
36242;BME280;22283;42.748;12.732;2023-09-12T21:26:30;98177.63;;;21.36;62.54
36242;BME280;22283;42.748;12.732;2023-09-12T21:31:30;98176.81;;;21.28;63.13
36242;BME280;22283;42.748;12.732;2023-09-12T21:36:31;98190.03;;;21.15;64.03
36242;BME280;22283;42.748;12.732;2023-09-12T21:41:31;98181.09;;;21.14;64.58
36242;BME280;22283;42.748;12.732;2023-09-12T21:46:31;98190.63;;;21.25;64.12
36242;BME280;22283;42.748;12.732;2023-09-12T21:51:33;98194.63;;;21.29;63.86
36242;BME280;22283;42.748;12.732;2023-09-12T21:56:34;98198.06;;;21.23;64.33
36242;BME280;22283;42.748;12.732;2023-09-12T22:01:34;98195.09;;;21.09;65.35
36242;BME280;22283;42.748;12.732;2023-09-12T22:06:34;98193.81;;;20.97;66.21
36242;BME280;22283;42.748;12.732;2023-09-12T22:11:35;98192.09;;;21.04;65.43
36242;BME280;22283;42.748;12.732;2023-09-12T22:16:35;98193.06;;;21.11;63.83
36242;BME280;22283;42.748;12.732;2023-09-12T22:21:36;98202.38;;;21.01;64.15
36242;BME280;22283;42.748;12.732;2023-09-12T22:26:37;98207.66;;;20.86;65.03
36242;BME280;22283;42.748;12.732;2023-09-12T22:31:38;98208.06;;;20.67;65.84
36242;BME280;22283;42.748;12.732;2023-09-12T22:36:38;98207.28;;;20.58;66.34
36242;BME280;22283;42.748;12.732;2023-09-12T22:41:39;98206.63;;;20.48;66.63
36242;BME280;22283;42.748;12.732;2023-09-12T22:46:39;98212.19;;;20.38;67.36
36242;BME280;22283;42.748;12.732;2023-09-12T22:51:40;98202.66;;;20.19;68.77
36242;BME280;22283;42.748;12.732;2023-09-12T22:56:41;98199.34;;;20.01;70.06
36242;BME280;22283;42.748;12.732;2023-09-12T23:01:41;98200.19;;;19.93;70.50
36242;BME280;22283;42.748;12.732;2023-09-12T23:06:42;98211.78;;;19.85;70.45
36242;BME280;22283;42.748;12.732;2023-09-12T23:11:42;98224.00;;;19.72;70.78
36242;BME280;22283;42.748;12.732;2023-09-12T23:16:42;98222.81;;;19.58;71.67
36242;BME280;22283;42.748;12.732;2023-09-12T23:21:43;98225.69;;;19.48;71.71
36242;BME280;22283;42.748;12.732;2023-09-12T23:26:44;98217.44;;;19.41;72.79
36242;BME280;22283;42.748;12.732;2023-09-12T23:31:44;98213.59;;;19.44;72.95
36242;BME280;22283;42.748;12.732;2023-09-12T23:36:45;98227.03;;;19.52;71.16
36242;BME280;22283;42.748;12.732;2023-09-12T23:41:45;98228.72;;;19.61;69.59
36242;BME280;22283;42.748;12.732;2023-09-12T23:46:46;98229.22;;;19.65;69.51
36242;BME280;22283;42.748;12.732;2023-09-12T23:51:47;98223.03;;;19.64;69.41
36242;BME280;22283;42.748;12.732;2023-09-12T23:56:47;98215.59;;;19.58;69.94
